Time;durP1;ratioP1;P1;durP2;ratioP2;P2;SDS_P1;SDS_P2;PMS_P1;PMS_P2;Temp;Humidity;BMP_temperature;BMP_pressure;BME280_temperature;BME280_humidity;BME280_pressure;Samples;Min_cycle;Max_cycle;Signal;HPM_P1;HPM_P2
2021/08/31 00:00:42;;;;;;;12.80;9.78;;;;;;;18.40;76.05;98798.67;1789463;80;20965;-40
2021/08/31 00:03:08;;;;;;;13.45;10.45;;;;;;;18.39;76.12;98791.66;1789290;80;21259;-40
2021/08/31 00:05:35;;;;;;;16.55;11.25;;;;;;;18.39;76.22;98786.17;1789058;79;20998;-40
2021/08/31 00:08:03;;;;;;;12.75;10.50;;;;;;;18.41;76.23;98778.87;1789589;79;21523;-40
2021/08/31 00:10:30;;;;;;;12.47;10.48;;;;;;;18.42;76.22;98785.31;1789349;80;21511;-40
2021/08/31 00:12:57;;;;;;;18.73;10.43;;;;;;;18.43;76.10;98784.13;1782269;80;20964;-40
2021/08/31 00:15:25;;;;;;;15.90;10.68;;;;;;;18.44;76.02;98787.64;1758162;81;21456;-40
2021/08/31 00:17:52;;;;;;;16.85;11.60;;;;;;;18.45;76.06;98782.30;1758097;81;21534;-40
2021/08/31 00:20:20;;;;;;;16.35;11.25;;;;;;;18.45;76.13;98785.05;1758223;80;21588;-41
2021/08/31 00:22:47;;;;;;;14.85;10.78;;;;;;;18.43;76.18;98782.75;1758223;81;21511;-40
2021/08/31 00:25:13;;;;;;;14.50;10.55;;;;;;;18.42;76.12;98786.69;1758088;81;21016;-40
2021/08/31 00:27:40;;;;;;;17.23;11.63;;;;;;;18.40;76.28;98782.80;1758127;81;21015;-40
2021/08/31 00:30:09;;;;;;;20.72;11.95;;;;;;;18.36;76.32;98782.89;1758174;81;21108;-40
2021/08/31 00:32:35;;;;;;;14.93;10.40;;;;;;;18.30;76.54;98785.95;1778484;80;21129;-40
2021/08/31 00:35:04;;;;;;;14.87;11.18;;;;;;;18.23;76.80;98785.52;1759261;80;21523;-40
2021/08/31 00:37:30;;;;;;;14.73;11.25;;;;;;;18.28;76.91;98786.22;1742007;82;20997;-40
2021/08/31 00:39:58;;;;;;;16.17;11.57;;;;;;;18.32;76.87;98782.80;1742177;82;21575;-41
2021/08/31 00:42:25;;;;;;;15.15;11.35;;;;;;;18.33;76.80;98776.11;1742108;81;20982;-41
2021/08/31 00:44:52;;;;;;;14.13;11.43;;;;;;;18.28;76.62;98782.10;1742084;82;21100;-41
2021/08/31 00:47:19;;;;;;;14.33;10.28;;;;;;;18.24;76.83;98781.59;1742010;81;21016;-41
2021/08/31 00:49:47;;;;;;;15.60;11.00;;;;;;;18.27;76.69;98785.45;1742162;82;21033;-41
2021/08/31 00:52:15;;;;;;;15.23;11.48;;;;;;;18.28;76.58;98787.59;1742068;81;20965;-41
2021/08/31 00:54:42;;;;;;;14.47;10.10;;;;;;;18.26;76.60;98796.23;1729639;82;21041;-41
2021/08/31 00:57:09;;;;;;;14.30;10.85;;;;;;;18.24;76.15;98788.45;1742093;82;21093;-41
2021/08/31 00:59:37;;;;;;;14.40;10.45;;;;;;;18.23;76.05;98791.61;1742040;81;21465;-41
2021/08/31 01:02:04;;;;;;;16.82;11.10;;;;;;;18.23;76.06;98794.35;1742058;82;21002;-41
2021/08/31 01:04:31;;;;;;;12.73;10.53;;;;;;;18.19;76.01;98797.77;1742885;81;21603;-41
2021/08/31 01:06:59;;;;;;;13.38;9.35;;;;;;;18.19;75.87;98794.44;1742127;82;21029;-41
2021/08/31 01:09:27;;;;;;;14.43;10.38;;;;;;;18.19;75.82;98796.41;1742131;82;21523;-42
2021/08/31 01:11:56;;;;;;;15.08;10.88;;;;;;;18.23;75.74;98798.47;1763625;81;20978;-41
2021/08/31 01:14:24;;;;;;;13.48;9.20;;;;;;;18.19;75.82;98804.63;1772710;81;20991;-41
2021/08/31 01:16:50;;;;;;;10.50;8.65;;;;;;;18.17;75.40;98805.05;1772740;79;20966;-41
2021/08/31 01:19:25;;;;;;;9.45;8.23;;;;;;;18.12;74.98;98806.91;1772880;79;21044;-41
2021/08/31 01:21:52;;;;;;;11.15;8.40;;;;;;;18.12;75.05;98807.51;1760555;81;21110;-41
2021/08/31 01:24:19;;;;;;;10.80;8.80;;;;;;;18.13;74.97;98805.72;1772779;80;20950;-41
2021/08/31 01:26:48;;;;;;;11.45;8.05;;;;;;;18.12;74.77;98806.14;1772987;80;20997;-41
2021/08/31 01:29:14;;;;;;;9.65;7.65;;;;;;;18.04;74.02;98799.26;1772762;81;21654;-41
2021/08/31 01:31:42;;;;;;;8.45;7.30;;;;;;;18.00;74.29;98805.42;1770210;81;21096;-41
2021/08/31 01:34:08;;;;;;;10.80;7.72;;;;;;;18.01;74.05;98812.45;1754593;81;21121;-41
2021/08/31 01:36:36;;;;;;;11.08;7.80;;;;;;;18.01;73.68;98809.72;1755867;81;21000;-41
2021/08/31 01:39:05;;;;;;;11.57;7.90;;;;;;;17.95;73.89;98816.88;1755773;80;21549;-41
2021/08/31 01:41:33;;;;;;;9.30;6.97;;;;;;;17.93;73.76;98815.14;1755728;80;21045;-41
2021/08/31 01:44:00;;;;;;;9.95;7.37;;;;;;;17.92;73.62;98817.70;1755827;80;21052;-41
2021/08/31 01:46:30;;;;;;;9.88;7.65;;;;;;;17.90;73.50;98814.63;1755871;80;20949;-41
2021/08/31 01:48:58;;;;;;;9.18;7.42;;;;;;;17.83;73.51;98822.38;1755582;80;21025;-41
2021/08/31 01:51:24;;;;;;;10.20;7.00;;;;;;;17.75;73.62;98830.58;1755716;81;21088;-41
2021/08/31 01:53:51;;;;;;;9.25;7.30;;;;;;;17.70;73.66;98823.61;1756458;80;21045;-41
2021/08/31 01:56:18;;;;;;;11.65;7.58;;;;;;;17.69;73.65;98827.54;1756141;81;21308;-41
2021/08/31 01:58:46;;;;;;;16.77;7.58;;;;;;;17.66;73.60;98833.88;1755847;80;21535;-41
2021/08/31 02:01:13;;;;;;;9.43;6.60;;;;;;;17.59;73.91;98840.84;1755688;80;21582;-41
2021/08/31 02:03:40;;;;;;;12.23;6.83;;;;;;;17.58;74.06;98836.52;1755870;81;21012;-41
2021/08/31 02:06:08;;;;;;;10.20;7.87;;;;;;;17.61;74.03;98828.87;1755780;81;20997;-41
2021/08/31 02:08:35;;;;;;;10.95;8.58;;;;;;;17.65;73.34;98821.95;1748274;80;21056;-41
2021/08/31 02:11:03;;;;;;;14.03;8.30;;;;;;;17.58;73.33;98837.11;1780879;80;21862;-41
2021/08/31 02:13:30;;;;;;;14.58;7.95;;;;;;;17.51;73.47;98835.28;1775145;80;21596;-41
2021/08/31 02:15:56;;;;;;;9.63;7.45;;;;;;;17.45;73.75;98839.69;1756031;81;21016;-40
2021/08/31 02:18:23;;;;;;;14.05;7.72;;;;;;;17.46;73.68;98831.65;1755567;81;21068;-41
2021/08/31 02:20:51;;;;;;;11.12;7.42;;;;;;;17.47;73.52;98841.42;1755936;81;21517;-41
2021/08/31 02:23:18;;;;;;;14.93;8.98;;;;;;;17.40;73.42;98833.31;1762307;80;21954;-41
2021/08/31 02:25:45;;;;;;;14.83;8.73;;;;;;;17.31;73.51;98832.48;1782029;80;20917;-41
2021/08/31 02:28:12;;;;;;;10.53;7.47;;;;;;;17.25;73.59;98836.88;1782115;80;21024;-41
2021/08/31 02:30:40;;;;;;;10.98;8.30;;;;;;;17.22;73.63;98854.17;1782173;80;21627;-41
2021/08/31 02:33:07;;;;;;;12.15;8.45;;;;;;;17.20;73.52;98847.54;1782103;80;21027;-41
2021/08/31 02:35:34;;;;;;;10.68;8.85;;;;;;;17.14;73.50;98842.34;1778766;79;21123;-41
2021/08/31 02:38:01;;;;;;;10.95;8.30;;;;;;;17.08;73.57;98847.55;1775781;80;20937;-41
2021/08/31 02:43:10;;;;;;;10.28;8.08;;;;;;;17.07;73.71;98841.10;1777228;78;22698;-40
2021/08/31 02:45:37;;;;;;;10.45;9.03;;;;;;;17.11;73.46;98837.70;1755569;81;21048;-40
2021/08/31 02:48:05;;;;;;;12.40;9.20;;;;;;;17.07;73.48;98837.77;1755619;81;20893;-40
2021/08/31 02:50:33;;;;;;;10.50;7.95;;;;;;;17.06;73.51;98832.11;1755685;81;21530;-40
2021/08/31 02:53:00;;;;;;;10.60;8.23;;;;;;;17.01;73.37;98832.58;1757333;81;20992;-40
2021/08/31 02:55:27;;;;;;;11.10;8.73;;;;;;;17.00;73.36;98833.76;1760108;81;21024;-40
2021/08/31 02:57:55;;;;;;;13.30;9.10;;;;;;;17.04;73.29;98836.47;1760286;81;21487;-40
2021/08/31 03:00:28;;;;;;;11.48;8.93;;;;;;;17.02;73.26;98845.68;1760086;81;21143;-40
2021/08/31 03:02:51;;;;;;;9.85;7.58;;;;;;;16.98;73.25;98840.27;1759512;81;21907;-40
2021/08/31 03:05:17;;;;;;;14.45;8.70;;;;;;;16.93;73.21;98840.14;1760618;81;21567;-40
2021/08/31 03:07:45;;;;;;;14.20;8.68;;;;;;;16.96;73.14;98848.11;1766647;80;21527;-40
2021/08/31 03:10:12;;;;;;;12.53;9.23;;;;;;;16.97;73.00;98848.88;1772920;81;21527;-40
2021/08/31 03:12:39;;;;;;;13.80;9.18;;;;;;;16.89;72.99;98847.61;1772931;80;22428;-40
2021/08/31 03:15:09;;;;;;;11.90;8.80;;;;;;;16.79;73.17;98854.04;1772787;80;21492;-40
2021/08/31 03:17:36;;;;;;;17.17;8.43;;;;;;;16.69;73.32;98854.96;1772894;81;21028;-40
2021/08/31 03:20:05;;;;;;;10.68;9.40;;;;;;;16.66;73.35;98852.25;1773289;81;21527;-40
2021/08/31 03:22:32;;;;;;;12.23;9.65;;;;;;;16.64;73.47;98851.31;1774901;80;21653;-40
2021/08/31 03:25:00;;;;;;;11.65;10.15;;;;;;;16.57;73.60;98852.73;1707702;84;21632;-40
2021/08/31 03:27:27;;;;;;;12.15;9.53;;;;;;;16.50;73.83;98853.62;1707314;84;21030;-40
2021/08/31 03:29:55;;;;;;;12.18;8.60;;;;;;;16.47;73.88;98849.55;1731923;82;20914;-40
2021/08/31 03:32:22;;;;;;;12.88;9.88;;;;;;;16.49;73.81;98851.29;1768379;80;21050;-40
2021/08/31 03:34:48;;;;;;;15.43;9.93;;;;;;;16.51;73.72;98846.16;1707680;84;21033;-40
2021/08/31 03:37:15;;;;;;;12.03;9.78;;;;;;;16.47;73.75;98844.84;1707548;84;21212;-40
2021/08/31 03:39:42;;;;;;;11.35;8.90;;;;;;;16.44;73.69;98851.74;1707668;84;20947;-40
2021/08/31 03:42:08;;;;;;;15.10;9.33;;;;;;;16.40;73.81;98857.27;1702923;83;21533;-40
2021/08/31 03:44:35;;;;;;;11.25;9.38;;;;;;;16.41;73.83;98859.41;1724195;83;21077;-40
2021/08/31 03:47:03;;;;;;;13.53;10.05;;;;;;;16.41;73.93;98863.52;1760854;81;21583;-40
2021/08/31 03:49:32;;;;;;;15.18;10.60;;;;;;;16.35;74.06;98865.93;1697800;84;21205;-40
2021/08/31 03:51:58;;;;;;;16.10;9.18;;;;;;;16.31;74.11;98864.42;1723721;83;21035;-40
2021/08/31 03:54:25;;;;;;;11.88;9.10;;;;;;;16.26;74.32;98874.45;1697138;84;21572;-40
2021/08/31 03:56:52;;;;;;;13.93;9.73;;;;;;;16.27;74.20;98878.13;1723527;83;21033;-40
2021/08/31 03:59:20;;;;;;;12.13;10.45;;;;;;;16.27;74.24;98889.66;1760194;81;21515;-40
2021/08/31 04:01:47;;;;;;;17.27;9.75;;;;;;;16.20;74.41;98900.69;1760195;81;21758;-40
2021/08/31 04:04:14;;;;;;;14.75;9.65;;;;;;;16.13;74.49;98903.48;1754877;81;21064;-40
2021/08/31 04:06:41;;;;;;;12.28;9.23;;;;;;;16.04;74.46;98906.13;1754592;81;21499;-40
2021/08/31 04:09:08;;;;;;;11.22;8.68;;;;;;;16.05;74.60;98902.80;1731500;82;20934;-40
2021/08/31 04:11:34;;;;;;;11.95;8.43;;;;;;;16.07;74.41;98899.83;1731664;82;21104;-40
2021/08/31 04:14:01;;;;;;;13.03;9.35;;;;;;;16.05;74.29;98903.58;1731557;82;21136;-40
2021/08/31 04:16:29;;;;;;;15.05;8.95;;;;;;;15.96;74.38;98899.19;1737922;81;21007;-40
2021/08/31 04:18:56;;;;;;;9.60;8.38;;;;;;;15.90;74.62;98905.49;1760100;81;21010;-40
2021/08/31 04:21:24;;;;;;;12.25;9.28;;;;;;;15.89;74.50;98896.52;1709520;83;21494;-40
2021/08/31 04:23:51;;;;;;;14.20;9.28;;;;;;;15.89;74.90;98906.66;1755496;81;21542;-40
2021/08/31 04:26:18;;;;;;;12.53;9.58;;;;;;;15.87;75.17;98906.31;1727871;83;21067;-40
2021/08/31 04:28:44;;;;;;;10.00;9.00;;;;;;;15.88;75.10;98903.16;1755236;81;21575;-40
2021/08/31 04:31:11;;;;;;;12.33;9.23;;;;;;;15.90;75.08;98907.64;1793422;80;20966;-40
2021/08/31 04:33:38;;;;;;;11.93;9.30;;;;;;;15.96;75.24;98911.48;1793084;80;21066;-40
2021/08/31 04:36:05;;;;;;;10.72;9.58;;;;;;;16.00;74.92;98913.59;1727823;83;21042;-40
2021/08/31 04:38:33;;;;;;;10.95;9.33;;;;;;;16.00;74.80;98911.45;1727760;83;20903;-40
2021/08/31 04:41:00;;;;;;;14.75;8.43;;;;;;;15.98;74.67;98914.58;1755139;81;21057;-40
2021/08/31 04:43:28;;;;;;;9.63;8.53;;;;;;;15.98;74.72;98909.70;1746142;82;21551;-40
2021/08/31 04:45:56;;;;;;;13.35;9.30;;;;;;;16.01;74.42;98908.31;1811787;79;21080;-40
2021/08/31 04:48:22;;;;;;;11.43;9.10;;;;;;;16.04;74.57;98910.81;1784046;80;20986;-40
2021/08/31 04:50:49;;;;;;;12.90;8.33;;;;;;;16.03;74.42;98908.66;1784039;80;21200;-40
2021/08/31 04:53:16;;;;;;;11.88;7.78;;;;;;;16.03;74.65;98912.77;1783938;80;21024;-40
2021/08/31 04:55:43;;;;;;;11.30;7.42;;;;;;;16.03;74.54;98914.14;1784176;80;20941;-40
2021/08/31 04:58:09;;;;;;;11.57;7.97;;;;;;;16.08;74.46;98910.18;1784162;80;21634;-40
2021/08/31 05:00:36;;;;;;;11.50;8.38;;;;;;;16.15;74.13;98914.81;1784089;80;20996;-40
2021/08/31 05:03:03;;;;;;;10.75;8.88;;;;;;;16.15;74.22;98906.61;1784023;80;21143;-40
2021/08/31 05:05:30;;;;;;;10.50;8.18;;;;;;;16.13;74.15;98913.06;1784060;80;21014;-40
2021/08/31 05:07:59;;;;;;;8.00;5.65;;;;;;;16.17;74.16;98919.30;1792639;79;21483;-40
2021/08/31 05:10:27;;;;;;;9.63;8.13;;;;;;;16.25;74.10;98922.12;1799820;79;20890;-40
2021/08/31 05:12:54;;;;;;;11.15;8.98;;;;;;;16.30;74.08;98914.25;1799605;79;20915;-40
2021/08/31 05:15:20;;;;;;;10.32;8.40;;;;;;;16.32;73.87;98919.30;1799103;79;21850;-41
2021/08/31 05:17:47;;;;;;;9.30;7.65;;;;;;;16.33;74.02;98917.53;1781821;80;21351;-40
2021/08/31 05:20:14;;;;;;;14.00;7.35;;;;;;;16.32;73.95;98916.56;1717500;83;21564;-40
2021/08/31 05:22:40;;;;;;;9.75;8.40;;;;;;;16.44;74.07;98917.41;1717383;83;21546;-40
2021/08/31 05:25:08;;;;;;;8.65;7.85;;;;;;;16.53;73.86;98919.83;1717528;83;20985;-40
2021/08/31 05:27:34;;;;;;;9.08;8.18;;;;;;;16.55;73.61;98912.59;1728888;82;21143;-40
2021/08/31 05:30:01;;;;;;;10.03;8.18;;;;;;;16.60;73.71;98914.91;1815661;79;21307;-40
2021/08/31 05:32:27;;;;;;;10.78;7.72;;;;;;;16.63;73.61;98911.34;1748741;82;20985;-41
2021/08/31 05:34:54;;;;;;;11.83;8.20;;;;;;;16.72;73.36;98915.71;1815867;79;21575;-40
2021/08/31 05:37:20;;;;;;;10.10;8.60;;;;;;;16.80;72.72;98919.90;1748880;82;21037;-40
2021/08/31 05:39:47;;;;;;;10.55;8.38;;;;;;;16.77;72.65;98911.16;1815794;79;21759;-40
2021/08/31 05:42:14;;;;;;;10.30;7.65;;;;;;;16.79;72.94;98917.59;1748682;82;20988;-41
2021/08/31 05:44:41;;;;;;;10.15;7.67;;;;;;;16.81;72.60;98917.94;1815887;79;21495;-40
2021/08/31 05:47:09;;;;;;;9.08;7.55;;;;;;;16.87;72.10;98915.71;1720960;82;20986;-40
2021/08/31 05:49:36;;;;;;;8.30;7.50;;;;;;;16.92;71.91;98920.73;1765230;81;21535;-40
2021/08/31 05:52:05;;;;;;;9.83;7.62;;;;;;;16.93;71.87;98926.39;1765518;81;20962;-40
2021/08/31 05:54:33;;;;;;;8.25;6.80;;;;;;;16.93;71.56;98929.13;1717506;83;21598;-40
2021/08/31 05:57:04;;;;;;;7.75;6.92;;;;;;;16.93;71.58;98924.24;1781933;80;20969;-40
2021/08/31 05:59:29;;;;;;;8.38;7.15;;;;;;;17.00;71.44;98927.46;1781918;80;21504;-40
2021/08/31 06:01:55;;;;;;;8.40;7.50;;;;;;;17.07;71.48;98926.78;1781195;80;21040;-40
2021/08/31 06:04:25;;;;;;;10.28;8.30;;;;;;;17.12;71.76;98923.58;1777657;80;21039;-40
2021/08/31 06:06:50;;;;;;;10.30;7.83;;;;;;;17.16;71.51;98922.16;1777945;80;20969;-41
2021/08/31 06:09:17;;;;;;;8.13;6.92;;;;;;;17.25;71.83;98934.73;1777581;80;21483;-40
2021/08/31 06:11:45;;;;;;;8.93;8.03;;;;;;;17.35;70.86;98925.58;1774838;80;20961;-40
2021/08/31 06:14:12;;;;;;;8.40;7.60;;;;;;;17.39;71.00;98924.33;1775055;80;21080;-40
2021/08/31 06:16:38;;;;;;;9.08;7.70;;;;;;;17.42;70.91;98924.70;1775045;79;21163;-40
2021/08/31 06:19:05;;;;;;;7.95;7.12;;;;;;;17.45;70.92;98930.72;1777247;80;20992;-40
2021/08/31 06:21:32;;;;;;;8.60;6.60;;;;;;;17.46;70.56;98923.45;1717191;83;21012;-40
2021/08/31 06:23:59;;;;;;;7.70;6.95;;;;;;;17.50;70.35;98924.17;1781774;80;20973;-41
2021/08/31 06:26:26;;;;;;;7.87;7.05;;;;;;;17.52;70.44;98924.55;1717357;83;21708;-40
2021/08/31 06:28:52;;;;;;;7.85;7.10;;;;;;;17.55;70.76;98918.22;1782092;80;21118;-40
2021/08/31 06:31:19;;;;;;;8.53;6.28;;;;;;;17.61;71.14;98925.41;1783536;80;21546;-41
2021/08/31 06:33:46;;;;;;;6.35;5.75;;;;;;;17.68;71.18;98927.42;1783453;80;20985;-40
2021/08/31 06:36:14;;;;;;;8.30;6.08;;;;;;;17.84;70.58;98928.14;1783413;80;21024;-40
2021/08/31 06:38:41;;;;;;;6.90;6.20;;;;;;;17.93;70.69;98930.33;1783544;80;21037;-40
2021/08/31 06:41:07;;;;;;;7.83;6.62;;;;;;;17.99;70.78;98929.44;1783392;80;21115;-40
2021/08/31 06:43:36;;;;;;;7.47;6.60;;;;;;;18.07;70.82;98931.45;1769206;80;21018;-40
2021/08/31 06:46:03;;;;;;;7.80;6.47;;;;;;;18.20;70.25;98933.77;1761463;80;20923;-40
2021/08/31 06:48:29;;;;;;;10.70;7.12;;;;;;;18.31;70.19;98936.29;1761398;81;20970;-40
2021/08/31 06:50:57;;;;;;;9.43;7.03;;;;;;;18.40;69.81;98930.41;1761612;80;21053;-40
2021/08/31 06:53:24;;;;;;;7.87;6.97;;;;;;;18.46;69.53;98934.23;1761269;80;21096;-40
2021/08/31 06:55:50;;;;;;;6.47;5.78;;;;;;;18.48;69.08;98932.44;1754871;81;21032;-40
2021/08/31 06:58:18;;;;;;;6.67;6.08;;;;;;;18.51;68.71;98933.73;1754455;81;20964;-40
2021/08/31 07:00:44;;;;;;;6.30;5.70;;;;;;;18.57;68.36;98929.34;1754468;81;21554;-40
2021/08/31 07:03:11;;;;;;;7.67;6.30;;;;;;;18.64;68.18;98929.17;1754258;81;21594;-41
2021/08/31 07:05:38;;;;;;;8.23;6.60;;;;;;;18.68;67.91;98925.59;1754434;81;21190;-41
2021/08/31 07:08:06;;;;;;;7.70;6.15;;;;;;;18.66;67.99;98929.53;1766184;80;21535;-41
2021/08/31 07:10:33;;;;;;;7.10;6.08;;;;;;;18.63;67.80;98924.91;1774849;80;21041;-40
2021/08/31 07:13:00;;;;;;;6.80;6.10;;;;;;;18.70;67.72;98932.80;1774906;80;21001;-41
2021/08/31 07:15:27;;;;;;;7.30;6.60;;;;;;;18.74;67.69;98930.15;1774768;80;21068;-40
2021/08/31 07:17:54;;;;;;;8.10;6.45;;;;;;;18.80;67.65;98924.94;1762253;80;21047;-41
2021/08/31 07:20:20;;;;;;;6.50;5.90;;;;;;;18.90;67.51;98933.55;1745941;81;20946;-40
2021/08/31 07:22:47;;;;;;;6.65;5.90;;;;;;;19.02;67.33;98928.19;1746659;81;21797;-40
2021/08/31 07:25:13;;;;;;;6.83;6.22;;;;;;;19.16;66.37;98929.84;1754611;81;20922;-41
2021/08/31 07:27:40;;;;;;;7.55;6.08;;;;;;;19.23;65.96;98932.41;1754428;81;21539;-40
2021/08/31 07:30:09;;;;;;;7.85;7.00;;;;;;;19.27;65.80;98925.45;1754604;81;21174;-40
2021/08/31 07:32:35;;;;;;;6.90;6.20;;;;;;;19.32;66.32;98928.47;1758691;81;21512;-41
2021/08/31 07:35:03;;;;;;;6.03;5.22;;;;;;;19.44;65.50;98930.58;1761753;81;21038;-41
2021/08/31 07:37:30;;;;;;;6.05;5.45;;;;;;;19.51;65.01;98929.02;1761697;81;21002;-40
2021/08/31 07:39:56;;;;;;;6.45;5.83;;;;;;;19.64;65.19;98931.09;1761750;81;21480;-41
2021/08/31 07:42:23;;;;;;;6.95;5.45;;;;;;;19.73;64.91;98927.13;1761710;81;21109;-42
2021/08/31 07:44:50;;;;;;;6.03;5.42;;;;;;;19.80;63.88;98926.97;1761166;80;21044;-41
2021/08/31 07:47:17;;;;;;;5.92;5.40;;;;;;;19.84;63.50;98936.67;1697367;84;21670;-41
2021/08/31 07:49:44;;;;;;;5.97;5.37;;;;;;;19.81;63.91;98936.74;1723727;83;21073;-40
2021/08/31 07:52:11;;;;;;;6.28;4.80;;;;;;;19.84;63.24;98925.67;1759980;81;21610;-41
2021/08/31 07:54:37;;;;;;;5.45;4.85;;;;;;;19.90;63.52;98925.89;1697419;84;21134;-41
2021/08/31 07:57:04;;;;;;;6.03;5.53;;;;;;;20.01;63.02;98931.12;1716241;83;21045;-40
2021/08/31 07:59:32;;;;;;;6.40;5.28;;;;;;;20.09;63.16;98929.75;1715817;83;20946;-41
2021/08/31 08:02:01;;;;;;;6.90;5.10;;;;;;;20.15;62.85;98927.39;1716038;83;21127;-41
2021/08/31 08:04:30;;;;;;;5.25;4.78;;;;;;;20.19;62.53;98925.31;1715864;83;21096;-41
2021/08/31 08:06:56;;;;;;;5.47;4.92;;;;;;;20.26;62.18;98923.77;1715543;83;21156;-41
2021/08/31 08:09:22;;;;;;;10.80;5.90;;;;;;;20.39;62.51;98928.73;1713374;83;21501;-40
2021/08/31 08:11:51;;;;;;;9.45;5.03;;;;;;;20.53;61.94;98928.94;1713437;82;21516;-40
2021/08/31 08:14:17;;;;;;;6.05;4.20;;;;;;;20.61;61.03;98931.67;1713898;82;21042;-40
2021/08/31 08:16:44;;;;;;;5.10;4.50;;;;;;;20.70;60.13;98933.17;1713616;81;21073;-41
2021/08/31 08:19:11;;;;;;;6.15;4.40;;;;;;;20.77;60.40;98930.80;1713502;83;21148;-41
2021/08/31 08:21:38;;;;;;;4.83;4.33;;;;;;;20.91;59.67;98933.16;1713167;83;21013;-41
2021/08/31 08:24:08;;;;;;;5.60;4.50;;;;;;;20.99;59.63;98940.00;1713564;83;20996;-41
2021/08/31 08:26:33;;;;;;;5.40;5.00;;;;;;;21.09;59.56;98934.77;1713401;83;21583;-41
2021/08/31 08:29:00;;;;;;;10.32;5.47;;;;;;;21.20;59.92;98935.23;1713338;83;21038;-41
2021/08/31 08:31:27;;;;;;;5.45;4.95;;;;;;;21.36;59.17;98933.58;1713344;83;22344;-41
2021/08/31 08:33:54;;;;;;;5.97;4.87;;;;;;;21.44;58.63;98941.81;1713313;83;21017;-41
2021/08/31 08:36:21;;;;;;;4.90;4.50;;;;;;;21.49;57.69;98938.50;1715737;82;21573;-41
2021/08/31 08:38:47;;;;;;;6.20;4.33;;;;;;;21.56;57.93;98941.78;1715877;83;21112;-41
2021/08/31 08:41:14;;;;;;;5.53;5.00;;;;;;;21.65;56.84;98944.64;1715881;83;21086;-41
2021/08/31 08:43:40;;;;;;;5.92;4.80;;;;;;;21.70;56.38;98939.16;1709761;82;21550;-41
2021/08/31 08:46:07;;;;;;;6.33;5.10;;;;;;;21.71;56.03;98948.98;1736267;82;20969;-41
2021/08/31 08:48:34;;;;;;;17.32;5.53;;;;;;;21.68;55.50;98941.01;1742967;81;20989;-41
2021/08/31 08:52:12;;;;;;;4.53;4.12;;;;;;;21.73;56.91;98938.30;1822462;78;21732;-41
2021/08/31 08:54:41;;;;;;;5.35;4.83;;;;;;;21.75;56.12;98941.36;1784317;80;20964;-41
2021/08/31 08:57:08;;;;;;;3.98;3.55;;;;;;;21.79;55.73;98939.25;1784232;80;21109;-41
2021/08/31 08:59:38;;;;;;;4.28;3.87;;;;;;;21.82;55.23;98939.77;1784096;80;20973;-41
2021/08/31 09:02:04;;;;;;;12.70;4.67;;;;;;;21.89;55.27;98937.35;1784414;79;20992;-41
2021/08/31 09:04:49;;;;;;;5.78;4.17;;;;;;;21.92;54.74;98930.96;1784298;79;20997;-41
2021/08/31 09:07:25;;;;;;;4.45;3.90;;;;;;;21.89;53.82;98932.61;1782603;80;20928;-41
2021/08/31 09:10:02;;;;;;;3.85;3.52;;;;;;;21.86;53.87;98922.47;1777887;80;20968;-41
2021/08/31 09:12:34;;;;;;;5.47;4.10;;;;;;;21.82;53.79;98934.84;1769793;80;21699;-41
2021/08/31 09:15:35;;;;;;;3.85;3.52;;;;;;;21.74;54.60;98928.77;1778573;80;20889;-41
2021/08/31 09:18:12;;;;;;;3.70;3.40;;;;;;;21.73;55.23;98931.39;1754621;80;20972;-41
2021/08/31 09:20:55;;;;;;;4.42;3.37;;;;;;;21.77;54.49;98927.13;1753187;81;21013;-41
2021/08/31 09:23:32;;;;;;;8.38;3.50;;;;;;;21.80;54.05;98935.28;1753097;81;22218;-41
2021/08/31 09:26:07;;;;;;;4.15;3.15;;;;;;;21.83;54.20;98930.88;1752273;81;21546;-41
2021/08/31 09:28:42;;;;;;;3.30;3.00;;;;;;;21.89;54.56;98922.95;1753245;81;21823;-41
2021/08/31 09:31:21;;;;;;;3.35;3.08;;;;;;;21.90;53.39;98917.59;1753115;81;21010;-41
2021/08/31 09:33:51;;;;;;;10.98;3.70;;;;;;;21.96;53.68;98917.23;1757533;79;21079;-41
2021/08/31 09:36:24;;;;;;;4.15;2.98;;;;;;;22.02;52.87;98914.06;1777885;80;21116;-41
2021/08/31 09:38:58;;;;;;;2.62;2.40;;;;;;;22.17;53.80;98920.47;1747766;80;20932;-42
2021/08/31 09:41:37;;;;;;;4.20;2.50;;;;;;;22.38;52.82;98919.09;1742198;82;20983;-42
2021/08/31 09:44:20;;;;;;;2.45;2.25;;;;;;;22.59;51.02;98929.21;1742288;82;21011;-42
2021/08/31 09:47:00;;;;;;;3.25;2.25;;;;;;;22.74;50.47;98921.36;1779796;80;21489;-42
2021/08/31 09:49:33;;;;;;;2.35;2.10;;;;;;;22.83;49.86;98925.55;1784313;80;21118;-42
2021/08/31 09:52:09;;;;;;;2.60;2.40;;;;;;;22.93;50.10;98925.77;1788636;79;21012;-42
2021/08/31 09:54:40;;;;;;;2.80;2.22;;;;;;;23.06;49.85;98925.66;1789893;79;20976;-42
2021/08/31 09:57:37;;;;;;;2.70;2.50;;;;;;;23.28;49.51;98920.08;1789865;80;20893;-42
2021/08/31 10:00:08;;;;;;;2.87;2.20;;;;;;;23.59;49.73;98922.80;1790064;80;21029;-42
2021/08/31 10:02:35;;;;;;;3.10;2.25;;;;;;;23.89;47.33;98926.70;1789731;80;21057;-42
2021/08/31 10:05:04;;;;;;;3.70;2.40;;;;;;;24.05;47.35;98921.65;1789260;80;20949;-42
2021/08/31 10:07:31;;;;;;;3.05;2.67;;;;;;;24.22;47.68;98926.28;1779085;80;21674;-42
2021/08/31 10:09:59;;;;;;;2.75;2.50;;;;;;;24.39;46.41;98923.36;1783188;80;21083;-42
2021/08/31 10:12:25;;;;;;;4.53;2.55;;;;;;;24.49;46.22;98926.28;1783295;80;21032;-42
2021/08/31 10:14:54;;;;;;;2.27;2.08;;;;;;;24.60;47.18;98927.94;1783486;80;21079;-42
2021/08/31 10:17:25;;;;;;;2.00;1.90;;;;;;;24.77;46.26;98933.92;1783158;80;20980;-42
2021/08/31 10:19:54;;;;;;;3.25;2.20;;;;;;;24.89;43.65;98927.44;1786718;78;21091;-42
2021/08/31 10:22:21;;;;;;;4.33;2.22;;;;;;;24.91;43.75;98928.37;1789145;80;21008;-42
2021/08/31 10:24:48;;;;;;;2.10;1.90;;;;;;;24.96;44.44;98929.13;1789572;80;21024;-42
2021/08/31 10:27:31;;;;;;;3.72;2.30;;;;;;;25.03;43.11;98930.16;1789484;80;21182;-42
2021/08/31 10:30:22;;;;;;;3.10;2.00;;;;;;;25.04;42.66;98928.94;1758482;79;21007;-42
2021/08/31 10:32:57;;;;;;;3.10;2.10;;;;;;;24.99;44.51;98936.50;1774194;78;20905;-42
2021/08/31 10:35:36;;;;;;;2.10;1.90;;;;;;;24.91;43.27;98935.30;1789501;80;21013;-42
2021/08/31 10:38:07;;;;;;;2.10;1.90;;;;;;;24.68;43.77;98933.33;1788939;78;21028;-42
2021/08/31 10:40:41;;;;;;;2.27;1.92;;;;;;;24.46;43.79;98930.58;1785334;80;21101;-42
2021/08/31 10:43:09;;;;;;;2.70;1.80;;;;;;;24.18;44.43;98932.59;1783328;78;21378;-42
2021/08/31 10:45:40;;;;;;;1.80;1.70;;;;;;;23.90;45.01;98931.02;1789610;79;21008;-42
2021/08/31 10:48:28;;;;;;;2.67;2.05;;;;;;;23.76;45.33;98929.00;1766265;79;21371;-42
2021/08/31 10:51:05;;;;;;;3.05;1.75;;;;;;;23.83;45.34;98930.08;1764415;78;21018;-42
2021/08/31 10:53:47;;;;;;;2.42;1.70;;;;;;;24.08;45.62;98932.41;1787697;79;21145;-42
2021/08/31 10:56:26;;;;;;;2.83;1.60;;;;;;;24.35;45.50;98931.04;1788944;80;20928;-42
2021/08/31 10:59:02;;;;;;;1.80;1.40;;;;;;;24.67;44.86;98922.70;1789647;80;20946;-42
2021/08/31 11:01:38;;;;;;;1.70;1.60;;;;;;;25.06;43.00;98927.86;1789117;80;20919;-42
2021/08/31 11:04:28;;;;;;;1.32;1.22;;;;;;;25.35;42.84;98927.27;1788940;80;21018;-42
2021/08/31 11:07:03;;;;;;;;;;;;;;;25.57;41.03;98925.02;1792092;79;21054;-42
2021/08/31 11:09:31;;;;;;;1.70;1.40;;;;;;;25.65;41.33;98924.84;1788157;79;20125;-42
2021/08/31 11:12:08;;;;;;;1.50;1.40;;;;;;;25.68;41.33;98921.72;1789638;80;21576;-42
2021/08/31 11:14:44;;;;;;;7.35;1.40;;;;;;;25.85;41.93;98920.83;1789153;80;21533;-42
2021/08/31 11:17:11;;;;;;;1.10;1.00;;;;;;;26.10;39.46;98929.29;1780473;79;21538;-42
2021/08/31 11:19:38;;;;;;;0.95;0.95;;;;;;;26.19;38.56;98922.91;1738753;81;21136;-42
2021/08/31 11:22:04;;;;;;;2.30;1.10;;;;;;;26.25;37.98;98925.95;1758285;81;21049;-42
2021/08/31 11:24:31;;;;;;;1.40;1.20;;;;;;;26.27;39.46;98927.65;1757853;81;21003;-42
2021/08/31 11:27:00;;;;;;;1.22;1.10;;;;;;;26.26;40.37;98933.67;1785636;80;21037;-42
2021/08/31 11:29:27;;;;;;;1.40;1.30;;;;;;;26.18;40.72;98925.55;1789342;79;21029;-42
2021/08/31 11:32:01;;;;;;;1.32;1.22;;;;;;;26.11;39.52;98926.66;1789594;80;21130;-42
2021/08/31 11:34:28;;;;;;;3.37;1.27;;;;;;;26.02;39.38;98921.80;1789320;80;20952;-42
2021/08/31 11:37:04;;;;;;;1.10;1.00;;;;;;;25.97;39.86;98932.95;1787619;79;21042;-42
2021/08/31 11:39:30;;;;;;;1.22;1.12;;;;;;;25.99;39.95;98929.09;1786026;78;20968;-42